createdAt,value
2018-12-21T00:00:56.073Z,10.40
2018-12-21T00:03:24.073Z,10.50
2018-12-21T00:05:52.090Z,10.50
2018-12-21T00:08:20.123Z,10.60
2018-12-21T00:10:48.125Z,10.60
2018-12-21T00:13:16.120Z,10.50
2018-12-21T00:15:44.146Z,10.40
2018-12-21T00:18:12.360Z,10.30
2018-12-21T00:20:40.329Z,10.20
2018-12-21T00:23:08.330Z,10.20
2018-12-21T00:25:36.383Z,10.10
2018-12-21T00:28:04.377Z,9.90
2018-12-21T00:30:31.962Z,10.10
2018-12-21T00:33:05.673Z,9.90
2018-12-21T00:35:39.421Z,9.80
2018-12-21T00:38:13.133Z,9.90
2018-12-21T00:40:46.821Z,10.00
2018-12-21T00:43:16.774Z,9.90
2018-12-21T00:45:46.746Z,9.90
2018-12-21T00:48:14.748Z,9.80
2018-12-21T00:50:42.751Z,10.00
2018-12-21T00:53:10.754Z,9.90
2018-12-21T00:55:38.777Z,10.00
2018-12-21T00:58:06.973Z,9.80
2018-12-21T01:00:35.186Z,10.10
2018-12-21T01:03:03.166Z,10.20
2018-12-21T01:05:31.285Z,10.00
2018-12-21T01:07:59.433Z,10.00
2018-12-21T01:10:27.522Z,10.10
2018-12-21T01:12:55.530Z,10.00
2018-12-21T01:15:23.551Z,10.00
2018-12-21T01:17:51.550Z,10.00
2018-12-21T01:20:19.556Z,10.10
2018-12-21T01:22:47.633Z,10.00
2018-12-21T01:25:15.634Z,10.10
2018-12-21T01:27:43.618Z,9.90
2018-12-21T01:30:11.717Z,9.90
2018-12-21T01:32:39.712Z,10.10
2018-12-21T01:35:07.798Z,9.70
2018-12-21T01:37:35.783Z,9.90
2018-12-21T01:40:05.349Z,10.10
2018-12-21T01:42:33.402Z,10.10
2018-12-21T01:45:01.435Z,10.10
2018-12-21T01:47:29.516Z,10.10
2018-12-21T01:49:57.818Z,10.10
2018-12-21T01:52:25.792Z,10.10
2018-12-21T01:54:53.809Z,10.00
2018-12-21T01:57:21.806Z,9.90
2018-12-21T01:59:49.902Z,10.10
2018-12-21T02:02:17.862Z,10.10
2018-12-21T02:04:45.874Z,10.10
2018-12-21T02:07:13.857Z,10.20
2018-12-21T02:09:41.875Z,10.10
2018-12-21T02:12:09.879Z,10.10
2018-12-21T02:14:37.889Z,10.40
2018-12-21T02:17:05.891Z,10.20
2018-12-21T02:19:33.894Z,10.10
2018-12-21T02:22:01.882Z,10.20
2018-12-21T02:24:29.894Z,10.10
2018-12-21T02:26:57.898Z,10.10
2018-12-21T02:29:25.974Z,10.20
2018-12-21T02:31:53.976Z,10.30
2018-12-21T02:34:22.029Z,10.10
2018-12-21T02:36:50.029Z,10.10
2018-12-21T02:39:18.030Z,9.80
2018-12-21T02:41:46.043Z,9.90
2018-12-21T02:44:14.078Z,9.70
2018-12-21T02:46:42.090Z,9.90
2018-12-21T02:49:10.110Z,10.00
2018-12-21T02:51:38.102Z,9.90
2018-12-21T02:54:06.093Z,9.70
2018-12-21T02:56:34.167Z,9.90
2018-12-21T02:59:02.185Z,9.90
2018-12-21T03:01:30.176Z,9.80
2018-12-21T03:03:58.182Z,9.80
2018-12-21T03:06:26.186Z,9.60
2018-12-21T03:08:54.180Z,9.90
2018-12-21T03:11:22.185Z,9.80
2018-12-21T03:13:50.158Z,9.80
2018-12-21T03:16:18.261Z,10.00
2018-12-21T03:18:46.255Z,9.90
2018-12-21T03:21:14.251Z,9.40
2018-12-21T03:23:42.422Z,9.90
2018-12-21T03:26:10.466Z,9.90
2018-12-21T03:28:38.457Z,9.80
2018-12-21T03:31:06.541Z,9.60
2018-12-21T03:33:34.578Z,9.70
2018-12-21T03:36:02.610Z,9.80
2018-12-21T03:38:30.665Z,10.00
2018-12-21T03:40:58.677Z,10.10
2018-12-21T03:43:26.734Z,10.10
2018-12-21T03:45:54.728Z,9.80
2018-12-21T03:48:22.774Z,9.90
2018-12-21T03:50:50.786Z,9.80
2018-12-21T03:53:18.773Z,10.10
2018-12-21T03:55:46.783Z,10.20
2018-12-21T03:58:14.831Z,10.20
2018-12-21T04:00:42.841Z,9.90
2018-12-21T04:03:10.838Z,9.90
2018-12-21T04:05:38.910Z,10.00
2018-12-21T04:08:06.903Z,9.80
2018-12-21T04:10:34.902Z,9.90
2018-12-21T04:13:02.900Z,10.00
2018-12-21T04:15:30.973Z,9.70
2018-12-21T04:17:59.016Z,9.60
2018-12-21T04:20:27.024Z,9.70
2018-12-21T04:22:56.275Z,9.80
2018-12-21T04:25:24.271Z,9.60
2018-12-21T04:27:52.282Z,9.70
2018-12-21T04:30:20.283Z,9.80
2018-12-21T04:32:48.278Z,9.90
2018-12-21T04:35:16.294Z,10.00
2018-12-21T04:37:44.350Z,10.10
2018-12-21T04:40:12.358Z,10.10
2018-12-21T04:42:40.350Z,10.00
2018-12-21T04:45:08.494Z,10.20
2018-12-21T04:47:36.493Z,10.30
2018-12-21T04:50:06.321Z,10.20
2018-12-21T04:52:42.960Z,10.10
2018-12-21T04:55:04.325Z,10.20
2018-12-21T04:57:32.336Z,10.10
2018-12-21T05:00:00.341Z,10.10
2018-12-21T05:02:28.423Z,10.00
2018-12-21T05:04:56.402Z,9.90
2018-12-21T05:07:24.426Z,10.10
2018-12-21T05:09:52.418Z,10.10
2018-12-21T05:12:20.425Z,10.00
2018-12-21T05:14:48.484Z,10.00
2018-12-21T05:17:16.491Z,10.00
2018-12-21T05:19:44.479Z,10.00
2018-12-21T05:22:12.488Z,9.90
2018-12-21T05:24:40.480Z,9.80
2018-12-21T05:27:08.550Z,9.70
2018-12-21T05:29:36.546Z,9.70
2018-12-21T05:32:04.626Z,9.80
2018-12-21T05:34:32.558Z,9.70
2018-12-21T05:37:00.567Z,9.80
2018-12-21T05:39:28.555Z,9.70
2018-12-21T05:41:56.549Z,9.70
2018-12-21T05:44:24.546Z,9.70
2018-12-21T05:46:52.554Z,9.70
2018-12-21T05:49:20.539Z,9.60
2018-12-21T05:51:48.536Z,9.70
2018-12-21T05:54:16.523Z,9.70
2018-12-21T05:56:44.541Z,9.70
2018-12-21T05:59:12.527Z,9.60
2018-12-21T06:01:40.595Z,9.60
2018-12-21T06:04:08.600Z,9.70
2018-12-21T06:06:36.771Z,9.70
2018-12-21T06:09:06.306Z,9.70
2018-12-21T06:11:34.313Z,9.70
2018-12-21T06:14:02.380Z,9.70
2018-12-21T06:16:30.386Z,9.70
2018-12-21T06:18:58.373Z,9.70
2018-12-21T06:21:26.394Z,9.60
2018-12-21T06:23:54.380Z,9.60
2018-12-21T06:26:22.383Z,9.40
2018-12-21T06:28:50.386Z,9.50
2018-12-21T06:31:18.378Z,9.50
2018-12-21T06:33:47.289Z,9.60
2018-12-21T06:36:15.362Z,9.70
2018-12-21T06:38:43.358Z,9.70
2018-12-21T06:41:11.376Z,9.60
2018-12-21T06:43:39.379Z,9.70
2018-12-21T06:46:14.173Z,9.60
2018-12-21T06:48:37.314Z,9.30
2018-12-21T06:51:05.314Z,9.50
2018-12-21T06:53:33.313Z,9.60
2018-12-21T06:56:01.300Z,9.60
2018-12-21T06:58:29.361Z,9.40
2018-12-21T07:00:57.828Z,9.60
2018-12-21T07:03:25.823Z,9.60
2018-12-21T07:05:53.834Z,9.60
2018-12-21T07:08:21.809Z,9.50
2018-12-21T07:10:49.813Z,9.60
2018-12-21T07:13:17.793Z,9.50
2018-12-21T07:15:45.802Z,9.50
2018-12-21T07:18:13.810Z,9.50
2018-12-21T07:20:41.918Z,9.60
2018-12-21T07:23:09.994Z,9.50
2018-12-21T07:25:38.015Z,9.70
2018-12-21T07:28:06.039Z,9.70
2018-12-21T07:30:34.019Z,9.60
2018-12-21T07:33:02.005Z,9.60
2018-12-21T07:35:30.021Z,9.50
2018-12-21T07:37:58.142Z,9.60
2018-12-21T07:40:26.159Z,9.70
2018-12-21T07:42:54.140Z,9.70
2018-12-21T07:45:22.135Z,9.50
2018-12-21T07:47:50.130Z,9.70
2018-12-21T07:50:18.113Z,9.70
2018-12-21T07:52:46.126Z,9.80
2018-12-21T07:55:14.378Z,9.90
2018-12-21T07:57:42.376Z,10.00
2018-12-21T08:00:10.921Z,10.00
2018-12-21T08:02:38.939Z,10.00
2018-12-21T08:05:07.075Z,9.90
2018-12-21T08:07:35.071Z,10.00
2018-12-21T08:10:06.002Z,10.00
2018-12-21T08:12:34.040Z,10.10
2018-12-21T08:15:02.031Z,10.10
2018-12-21T08:17:30.066Z,10.00
2018-12-21T08:19:58.073Z,9.90
2018-12-21T08:22:26.081Z,10.00
2018-12-21T08:24:54.100Z,10.00
2018-12-21T08:27:22.120Z,9.90
2018-12-21T08:29:50.120Z,10.10
2018-12-21T08:32:18.190Z,10.20
2018-12-21T08:34:46.227Z,10.00
2018-12-21T08:37:14.237Z,10.10
2018-12-21T08:39:42.251Z,10.30
2018-12-21T08:42:10.262Z,10.30
2018-12-21T08:44:38.270Z,10.30
2018-12-21T08:47:06.281Z,10.10
2018-12-21T08:49:34.286Z,10.10
2018-12-21T08:52:02.295Z,10.10
2018-12-21T08:54:30.298Z,10.20
2018-12-21T08:56:58.327Z,10.20
2018-12-21T08:59:26.310Z,10.20
2018-12-21T09:01:54.318Z,10.30
2018-12-21T09:04:22.310Z,10.30
2018-12-21T09:06:50.370Z,9.90
2018-12-21T09:09:18.356Z,10.00
2018-12-21T09:11:46.388Z,10.20
2018-12-21T09:14:14.371Z,10.20
2018-12-21T09:16:42.367Z,10.40
2018-12-21T09:19:10.360Z,10.40
2018-12-21T09:21:38.371Z,10.40
2018-12-21T09:24:06.379Z,10.50
2018-12-21T09:26:34.399Z,10.60
2018-12-21T09:29:02.397Z,10.30
2018-12-21T09:31:30.398Z,10.40
2018-12-21T09:33:58.416Z,10.00
2018-12-21T09:36:26.426Z,10.20
2018-12-21T09:38:54.419Z,10.20
2018-12-21T09:41:22.421Z,10.40
2018-12-21T09:43:50.445Z,10.40
2018-12-21T09:46:18.439Z,10.50
2018-12-21T09:48:46.454Z,10.50
2018-12-21T09:51:14.477Z,10.20
2018-12-21T09:53:42.485Z,10.50
2018-12-21T09:56:10.548Z,10.00
2018-12-21T09:58:38.582Z,10.10
2018-12-21T10:01:06.577Z,10.40
2018-12-21T10:03:34.596Z,10.40
2018-12-21T10:06:02.586Z,10.60
2018-12-21T10:08:30.607Z,10.50
2018-12-21T10:10:58.630Z,10.40
2018-12-21T10:13:26.643Z,10.50
2018-12-21T10:15:54.641Z,10.60
2018-12-21T10:18:22.661Z,10.90
2018-12-21T10:20:50.664Z,10.70
2018-12-21T10:23:18.675Z,10.90
2018-12-21T10:25:46.671Z,11.00
2018-12-21T10:28:14.756Z,10.80
2018-12-21T10:30:42.761Z,10.90
2018-12-21T10:33:10.769Z,10.80
2018-12-21T10:35:38.792Z,10.80
2018-12-21T10:38:06.829Z,11.10
2018-12-21T10:40:34.826Z,11.20
2018-12-21T10:43:02.856Z,11.20
2018-12-21T10:45:30.921Z,11.30
2018-12-21T10:48:00.106Z,11.10
2018-12-21T10:50:28.381Z,11.30
2018-12-21T10:52:56.374Z,11.40
2018-12-21T10:55:24.382Z,11.10
2018-12-21T10:57:52.394Z,11.20
2018-12-21T11:00:20.842Z,11.40
2018-12-21T11:02:48.856Z,11.40
2018-12-21T11:05:16.870Z,11.10
2018-12-21T11:07:44.894Z,11.40
2018-12-21T11:10:12.895Z,11.20
2018-12-21T11:12:40.938Z,11.10
2018-12-21T11:15:09.085Z,11.10
2018-12-21T11:17:37.180Z,11.00
2018-12-21T11:20:06.456Z,11.20
2018-12-21T11:22:34.467Z,10.70
2018-12-21T11:25:04.920Z,10.90
2018-12-21T11:27:32.933Z,11.00
2018-12-21T11:30:00.944Z,11.30
2018-12-21T11:32:29.124Z,11.00
2018-12-21T11:34:57.162Z,11.30
2018-12-21T11:37:25.193Z,10.90
2018-12-21T11:39:53.208Z,11.20
2018-12-21T11:42:21.257Z,11.50
2018-12-21T11:44:49.340Z,10.90
2018-12-21T11:47:17.791Z,10.80
2018-12-21T11:49:45.817Z,11.30
2018-12-21T11:52:13.843Z,11.40
2018-12-21T11:54:44.476Z,10.80
2018-12-21T11:57:11.930Z,11.20
2018-12-21T11:59:44.911Z,11.40
2018-12-21T12:02:10.044Z,11.50
2018-12-21T12:04:38.055Z,11.10
2018-12-21T12:07:06.079Z,11.10
2018-12-21T12:09:34.081Z,11.10
2018-12-21T12:12:02.103Z,11.30
2018-12-21T12:14:30.432Z,11.60
2018-12-21T12:16:58.829Z,11.70
2018-12-21T12:19:27.064Z,11.60
2018-12-21T12:21:55.079Z,11.60
2018-12-21T12:24:23.106Z,11.30
2018-12-21T12:26:51.123Z,11.30
2018-12-21T12:29:19.159Z,11.50
2018-12-21T12:31:47.169Z,11.50
2018-12-21T12:34:15.200Z,11.60
2018-12-21T12:36:43.210Z,11.70
2018-12-21T12:39:11.227Z,11.70
2018-12-21T12:41:39.240Z,11.60
2018-12-21T12:44:07.275Z,11.70
2018-12-21T12:46:35.294Z,11.40
2018-12-21T12:49:03.385Z,11.30
2018-12-21T12:51:31.398Z,11.50
2018-12-21T12:53:59.427Z,11.60
2018-12-21T12:56:27.455Z,11.80
2018-12-21T12:58:55.460Z,11.60
2018-12-21T13:01:23.563Z,11.60
2018-12-21T13:03:51.656Z,11.70
2018-12-21T13:06:19.740Z,11.60
2018-12-21T13:08:47.767Z,11.80
2018-12-21T13:11:15.770Z,11.70
2018-12-21T13:13:43.795Z,11.70
2018-12-21T13:16:11.809Z,11.90
2018-12-21T13:18:39.827Z,12.00
2018-12-21T13:21:07.934Z,11.70
2018-12-21T13:23:35.950Z,11.80
2018-12-21T13:26:03.957Z,11.80
2018-12-21T13:28:31.974Z,11.80
2018-12-21T13:31:00.006Z,12.10
2018-12-21T13:33:28.035Z,12.20
2018-12-21T13:35:56.052Z,12.20
2018-12-21T13:38:24.062Z,12.20
2018-12-21T13:40:52.095Z,12.00
2018-12-21T13:43:20.090Z,11.90
2018-12-21T13:45:48.274Z,11.90
2018-12-21T13:48:16.348Z,12.20
2018-12-21T13:50:44.392Z,12.30
2018-12-21T13:53:12.390Z,12.30
2018-12-21T13:55:40.440Z,12.30
2018-12-21T13:58:08.454Z,11.80
2018-12-21T14:00:36.487Z,12.00
2018-12-21T14:03:04.511Z,12.00
2018-12-21T14:05:32.523Z,12.30
2018-12-21T14:08:00.543Z,12.30
2018-12-21T14:10:28.544Z,12.40
2018-12-21T14:12:56.553Z,12.50
2018-12-21T14:15:24.572Z,12.30
2018-12-21T14:17:52.582Z,12.50
2018-12-21T14:20:20.603Z,12.50
2018-12-21T14:22:48.634Z,12.30
2018-12-21T14:25:16.640Z,12.50
2018-12-21T14:27:44.656Z,12.70
2018-12-21T14:30:12.684Z,12.70
2018-12-21T14:32:40.696Z,12.80
2018-12-21T14:35:08.783Z,12.80
2018-12-21T14:37:36.875Z,12.80
2018-12-21T14:40:05.475Z,12.50
2018-12-21T14:42:33.517Z,12.50
2018-12-21T14:45:01.527Z,12.60
2018-12-21T14:47:29.626Z,12.80
2018-12-21T14:49:57.643Z,12.70
2018-12-21T14:52:25.657Z,12.50
2018-12-21T14:54:53.664Z,12.80
2018-12-21T14:57:21.694Z,12.80
2018-12-21T14:59:49.701Z,12.50
2018-12-21T15:02:17.722Z,12.70
2018-12-21T15:04:45.835Z,12.70
2018-12-21T15:07:13.922Z,12.60
2018-12-21T15:09:41.936Z,12.70
2018-12-21T15:12:09.985Z,12.50
2018-12-21T15:14:37.987Z,12.50
2018-12-21T15:17:06.016Z,12.70
2018-12-21T15:19:34.020Z,12.80
2018-12-21T15:22:02.063Z,12.80
2018-12-21T15:24:30.123Z,12.70
2018-12-21T15:26:58.159Z,12.80
2018-12-21T15:29:26.170Z,12.90
2018-12-21T15:31:54.194Z,12.50
2018-12-21T15:34:22.207Z,13.10
2018-12-21T15:36:50.242Z,13.20
2018-12-21T15:39:18.249Z,12.80
2018-12-21T15:41:46.272Z,13.00
2018-12-21T15:44:14.286Z,12.90
2018-12-21T15:46:42.315Z,13.00
2018-12-21T15:49:10.331Z,13.00
2018-12-21T15:51:38.359Z,12.60
2018-12-21T15:54:06.371Z,13.00
2018-12-21T15:56:34.410Z,13.20
2018-12-21T15:59:02.423Z,13.10
2018-12-21T16:01:36.760Z,13.10
2018-12-21T16:04:00.412Z,13.30
2018-12-21T16:06:28.442Z,13.30
2018-12-21T16:08:56.454Z,13.30
2018-12-21T16:11:24.509Z,13.40
2018-12-21T16:13:52.509Z,13.40
2018-12-21T16:16:20.523Z,13.20
2018-12-21T16:18:48.556Z,13.40
2018-12-21T16:21:16.568Z,13.30
2018-12-21T16:23:44.591Z,13.30
2018-12-21T16:26:12.601Z,13.20
2018-12-21T16:28:42.114Z,13.30
2018-12-21T16:31:10.307Z,13.30
2018-12-21T16:33:38.340Z,13.40
2018-12-21T16:36:06.347Z,13.30
2018-12-21T16:38:34.387Z,13.00
2018-12-21T16:41:02.395Z,13.20
2018-12-21T16:43:30.438Z,13.30
2018-12-21T16:45:58.462Z,13.10
2018-12-21T16:48:26.490Z,13.10
2018-12-21T16:50:54.493Z,13.40
2018-12-21T16:53:22.538Z,13.30
2018-12-21T16:55:50.560Z,13.40
2018-12-21T16:58:18.591Z,13.50
2018-12-21T17:00:46.591Z,13.40
2018-12-21T17:03:15.698Z,13.40
2018-12-21T17:05:44.107Z,13.30
2018-12-21T17:08:12.133Z,13.50
2018-12-21T17:10:40.157Z,13.60
2018-12-21T17:13:08.165Z,13.50
2018-12-21T17:15:36.164Z,13.60
2018-12-21T17:18:04.748Z,13.30
2018-12-21T17:20:32.756Z,13.40
2018-12-21T17:23:00.884Z,13.40
2018-12-21T17:25:29.132Z,13.30
2018-12-21T17:27:57.158Z,13.10
2018-12-21T17:30:25.224Z,13.50
2018-12-21T17:32:53.276Z,13.50
2018-12-21T17:35:21.287Z,13.60
2018-12-21T17:37:49.306Z,13.20
2018-12-21T17:40:17.396Z,13.40
2018-12-21T17:42:45.488Z,13.60
2018-12-21T17:45:13.493Z,13.70
2018-12-21T17:47:41.533Z,13.60
2018-12-21T17:50:09.558Z,13.50
2018-12-21T17:52:37.578Z,13.20
2018-12-21T17:55:06.454Z,13.60
2018-12-21T17:57:34.486Z,13.40
2018-12-21T18:00:04.459Z,13.60
2018-12-21T18:02:32.494Z,13.40
2018-12-21T18:05:00.627Z,13.60
2018-12-21T18:07:28.657Z,13.60
2018-12-21T18:09:56.694Z,13.70
2018-12-21T18:12:24.697Z,13.50
2018-12-21T18:14:52.740Z,13.70
2018-12-21T18:17:20.780Z,13.60
2018-12-21T18:19:48.787Z,13.70
2018-12-21T18:22:16.802Z,13.90
2018-12-21T18:24:44.854Z,13.80
2018-12-21T18:27:12.851Z,13.90
2018-12-21T18:29:40.965Z,13.80
2018-12-21T18:32:09.709Z,13.70
2018-12-21T18:34:37.748Z,13.80
2018-12-21T18:37:05.755Z,13.90
2018-12-21T18:39:33.777Z,13.80
2018-12-21T18:42:01.892Z,13.30
2018-12-21T18:44:29.934Z,13.90
2018-12-21T18:46:57.954Z,13.60
2018-12-21T18:49:25.963Z,13.90
2018-12-21T18:51:53.996Z,13.60
2018-12-21T18:54:22.018Z,13.70
2018-12-21T18:56:51.872Z,13.80
2018-12-21T18:59:19.903Z,13.70
2018-12-21T19:01:47.903Z,13.70
2018-12-21T19:04:15.988Z,13.90
2018-12-21T19:06:44.030Z,14.00
2018-12-21T19:09:12.061Z,14.00
2018-12-21T19:11:40.074Z,14.00
2018-12-21T19:14:08.200Z,13.90
2018-12-21T19:16:36.217Z,13.70
2018-12-21T19:19:04.254Z,13.80
2018-12-21T19:21:32.261Z,14.10
2018-12-21T19:24:00.316Z,13.90
2018-12-21T19:26:28.338Z,14.00
2018-12-21T19:28:56.442Z,13.90
2018-12-21T19:31:24.625Z,13.90
2018-12-21T19:33:52.663Z,14.10
2018-12-21T19:36:20.679Z,13.80
2018-12-21T19:38:48.712Z,13.90
2018-12-21T19:41:16.732Z,13.50
2018-12-21T19:43:44.751Z,14.00
2018-12-21T19:46:12.776Z,13.90
2018-12-21T19:48:40.820Z,13.60
2018-12-21T19:51:08.855Z,13.80
2018-12-21T19:53:36.873Z,13.90
2018-12-21T19:56:08.885Z,13.70
2018-12-21T19:58:36.916Z,13.90
2018-12-21T20:01:04.950Z,14.00
2018-12-21T20:03:33.026Z,14.00
2018-12-21T20:06:01.025Z,13.90
2018-12-21T20:08:29.047Z,13.80
2018-12-21T20:10:57.080Z,14.00
2018-12-21T20:13:25.112Z,13.90
2018-12-21T20:15:53.262Z,13.90
2018-12-21T20:18:21.313Z,14.00
2018-12-21T20:20:49.324Z,14.20
2018-12-21T20:23:17.368Z,14.20
2018-12-21T20:25:45.393Z,14.00
2018-12-21T20:28:13.429Z,14.00
2018-12-21T20:30:41.455Z,14.00
2018-12-21T20:33:09.480Z,13.90
2018-12-21T20:35:37.502Z,14.00
2018-12-21T20:38:05.529Z,14.10
2018-12-21T20:40:33.574Z,14.10
2018-12-21T20:43:01.589Z,14.00
2018-12-21T20:45:29.920Z,14.00
2018-12-21T20:47:57.947Z,14.20
2018-12-21T20:50:25.961Z,14.00
2018-12-21T20:52:53.984Z,14.10
2018-12-21T20:55:22.016Z,14.20
2018-12-21T20:57:50.193Z,14.10
2018-12-21T21:00:18.201Z,14.10
2018-12-21T21:02:46.333Z,13.90
2018-12-21T21:05:14.325Z,14.10
2018-12-21T21:07:42.365Z,14.00
2018-12-21T21:10:11.573Z,14.00
2018-12-21T21:12:39.739Z,13.60
2018-12-21T21:15:10.891Z,13.90
2018-12-21T21:17:38.992Z,13.90
2018-12-21T21:20:12.202Z,14.00
2018-12-21T21:22:40.331Z,14.10
2018-12-21T21:25:08.436Z,13.80
2018-12-21T21:27:36.414Z,13.70
2018-12-21T21:30:10.862Z,14.00
2018-12-21T21:32:38.867Z,13.90
2018-12-21T21:35:07.267Z,14.00
2018-12-21T21:37:35.345Z,14.10
2018-12-21T21:40:10.964Z,14.10
2018-12-21T21:42:38.976Z,13.90
2018-12-21T21:45:08.943Z,14.00
2018-12-21T21:47:36.943Z,14.20
2018-12-21T21:50:08.418Z,14.10
2018-12-21T21:52:36.517Z,14.20
2018-12-21T21:55:04.674Z,14.10
2018-12-21T21:57:39.293Z,14.20
2018-12-21T22:00:02.706Z,14.30
2018-12-21T22:02:30.781Z,14.30
2018-12-21T22:04:58.798Z,14.40
2018-12-21T22:07:26.820Z,14.40
2018-12-21T22:09:55.122Z,14.50
2018-12-21T22:12:23.155Z,14.50
2018-12-21T22:14:51.170Z,14.50
2018-12-21T22:17:19.200Z,14.50
2018-12-21T22:19:47.217Z,14.40
2018-12-21T22:22:15.230Z,14.30
2018-12-21T22:24:43.255Z,14.20
2018-12-21T22:27:11.320Z,14.30
2018-12-21T22:29:39.349Z,14.30
2018-12-21T22:32:07.466Z,14.10
2018-12-21T22:34:35.513Z,14.30
2018-12-21T22:37:03.522Z,14.30
2018-12-21T22:39:31.574Z,14.20
2018-12-21T22:41:59.661Z,14.20
2018-12-21T22:44:27.807Z,14.20
2018-12-21T22:46:55.807Z,14.20
2018-12-21T22:49:23.837Z,14.30
2018-12-21T22:51:52.748Z,14.30
2018-12-21T22:54:20.761Z,14.40
2018-12-21T22:56:48.807Z,14.30
2018-12-21T22:59:16.791Z,14.20
2018-12-21T23:01:44.824Z,14.20
2018-12-21T23:04:12.826Z,14.20
2018-12-21T23:06:40.940Z,14.00
2018-12-21T23:09:08.942Z,14.00
2018-12-21T23:11:36.952Z,14.00
2018-12-21T23:14:05.018Z,14.00
2018-12-21T23:16:33.025Z,13.70
2018-12-21T23:19:01.031Z,14.00
2018-12-21T23:21:29.091Z,13.90
2018-12-21T23:23:57.097Z,14.10
2018-12-21T23:26:25.184Z,14.10
2018-12-21T23:28:53.181Z,14.10
2018-12-21T23:31:21.201Z,14.10
2018-12-21T23:33:49.206Z,14.00
2018-12-21T23:36:17.201Z,13.90
2018-12-21T23:38:45.213Z,14.10
2018-12-21T23:41:13.211Z,14.00
2018-12-21T23:43:43.378Z,14.00
2018-12-21T23:46:11.189Z,14.00
2018-12-21T23:48:39.253Z,13.80
2018-12-21T23:51:07.285Z,13.80
2018-12-21T23:53:35.371Z,13.90
2018-12-21T23:56:11.793Z,13.80
2018-12-21T23:58:33.447Z,13.60
